sensor_id;sensor_type;location;lat;lon;timestamp;pressure;altitude;pressure_sealevel;temperature;humidity
59055;BME280;44845;51.444;7.460;2023-08-01T00:00:08;98097.81;;;16.80;100.00
59055;BME280;44845;51.444;7.460;2023-08-01T00:02:34;98097.63;;;16.83;100.00
59055;BME280;44845;51.444;7.460;2023-08-01T00:05:00;98095.81;;;16.84;100.00
59055;BME280;44845;51.444;7.460;2023-08-01T00:07:27;98094.88;;;16.85;100.00
59055;BME280;44845;51.444;7.460;2023-08-01T00:09:53;98094.78;;;16.86;100.00
59055;BME280;44845;51.444;7.460;2023-08-01T00:12:18;98085.22;;;16.84;100.00
59055;BME280;44845;51.444;7.460;2023-08-01T00:14:43;98091.84;;;16.76;100.00
59055;BME280;44845;51.444;7.460;2023-08-01T00:17:09;98091.75;;;16.78;100.00
59055;BME280;44845;51.444;7.460;2023-08-01T00:19:34;98085.31;;;16.82;100.00
59055;BME280;44845;51.444;7.460;2023-08-01T00:21:59;98082.97;;;16.77;100.00
59055;BME280;44845;51.444;7.460;2023-08-01T00:24:25;98069.72;;;16.77;100.00
59055;BME280;44845;51.444;7.460;2023-08-01T00:26:50;98058.00;;;16.82;100.00
59055;BME280;44845;51.444;7.460;2023-08-01T00:29:16;98063.28;;;16.82;100.00
59055;BME280;44845;51.444;7.460;2023-08-01T00:31:41;98069.16;;;16.87;100.00
59055;BME280;44845;51.444;7.460;2023-08-01T00:34:07;98064.81;;;16.86;100.00
59055;BME280;44845;51.444;7.460;2023-08-01T00:36:32;98060.47;;;16.85;100.00
59055;BME280;44845;51.444;7.460;2023-08-01T00:38:57;98047.41;;;16.82;100.00
59055;BME280;44845;51.444;7.460;2023-08-01T00:41:23;98041.19;;;16.83;100.00
59055;BME280;44845;51.444;7.460;2023-08-01T00:43:48;98046.28;;;16.86;100.00
59055;BME280;44845;51.444;7.460;2023-08-01T00:46:14;98039.84;;;16.90;100.00
59055;BME280;44845;51.444;7.460;2023-08-01T00:48:39;98033.69;;;16.89;100.00
59055;BME280;44845;51.444;7.460;2023-08-01T00:51:07;98040.78;;;16.89;100.00
59055;BME280;44845;51.444;7.460;2023-08-01T00:53:34;98027.75;;;16.86;100.00
59055;BME280;44845;51.444;7.460;2023-08-01T00:55:59;98019.72;;;16.87;100.00
59055;BME280;44845;51.444;7.460;2023-08-01T00:58:25;98027.47;;;16.91;100.00
59055;BME280;44845;51.444;7.460;2023-08-01T01:00:50;98040.78;;;16.89;100.00
59055;BME280;44845;51.444;7.460;2023-08-01T01:03:16;98055.19;;;16.70;100.00
59055;BME280;44845;51.444;7.460;2023-08-01T01:05:56;98050.19;;;16.65;100.00
59055;BME280;44845;51.444;7.460;2023-08-01T01:08:22;98052.06;;;16.49;100.00
59055;BME280;44845;51.444;7.460;2023-08-01T01:10:47;98055.00;;;16.44;100.00
59055;BME280;44845;51.444;7.460;2023-08-01T01:13:13;98053.69;;;16.37;100.00
59055;BME280;44845;51.444;7.460;2023-08-01T01:15:38;98049.50;;;16.47;100.00
59055;BME280;44845;51.444;7.460;2023-08-01T01:18:06;98030.69;;;16.52;100.00
59055;BME280;44845;51.444;7.460;2023-08-01T01:20:34;98018.16;;;16.41;100.00
59055;BME280;44845;51.444;7.460;2023-08-01T01:23:01;98025.13;;;16.42;100.00
59055;BME280;44845;51.444;7.460;2023-08-01T01:25:28;98025.91;;;16.44;100.00
59055;BME280;44845;51.444;7.460;2023-08-01T01:27:55;98017.00;;;16.45;100.00
59055;BME280;44845;51.444;7.460;2023-08-01T01:30:22;98021.16;;;16.49;100.00
59055;BME280;44845;51.444;7.460;2023-08-01T01:32:48;98010.78;;;16.46;100.00
59055;BME280;44845;51.444;7.460;2023-08-01T01:35:14;98007.94;;;16.49;100.00
59055;BME280;44845;51.444;7.460;2023-08-01T01:37:39;97995.94;;;16.43;100.00
59055;BME280;44845;51.444;7.460;2023-08-01T01:40:05;97996.22;;;16.53;100.00
59055;BME280;44845;51.444;7.460;2023-08-01T01:42:31;97996.31;;;16.52;100.00
59055;BME280;44845;51.444;7.460;2023-08-01T01:44:56;98000.66;;;16.53;100.00
59055;BME280;44845;51.444;7.460;2023-08-01T01:47:21;97997.91;;;16.54;100.00
59055;BME280;44845;51.444;7.460;2023-08-01T01:49:47;98000.19;;;16.46;100.00
59055;BME280;44845;51.444;7.460;2023-08-01T01:52:12;97993.59;;;16.53;100.00
59055;BME280;44845;51.444;7.460;2023-08-01T01:54:37;97994.34;;;16.55;100.00
59055;BME280;44845;51.444;7.460;2023-08-01T01:57:03;97975.69;;;16.57;100.00
59055;BME280;44845;51.444;7.460;2023-08-01T01:59:28;97976.97;;;16.51;100.00
59055;BME280;44845;51.444;7.460;2023-08-01T02:01:53;97973.34;;;16.52;100.00
59055;BME280;44845;51.444;7.460;2023-08-01T02:04:19;97976.69;;;16.27;100.00
59055;BME280;44845;51.444;7.460;2023-08-01T02:06:45;97977.91;;;16.36;100.00
59055;BME280;44845;51.444;7.460;2023-08-01T02:09:10;97982.81;;;16.42;100.00
59055;BME280;44845;51.444;7.460;2023-08-01T02:11:35;97988.47;;;16.50;100.00
59055;BME280;44845;51.444;7.460;2023-08-01T02:14:01;97976.75;;;16.40;100.00
59055;BME280;44845;51.444;7.460;2023-08-01T02:16:28;97976.56;;;16.43;100.00
59055;BME280;44845;51.444;7.460;2023-08-01T02:18:53;97967.59;;;16.46;100.00
59055;BME280;44845;51.444;7.460;2023-08-01T02:21:18;97972.59;;;16.50;100.00
59055;BME280;44845;51.444;7.460;2023-08-01T02:23:44;97975.44;;;16.47;100.00
59055;BME280;44845;51.444;7.460;2023-08-01T02:26:09;97978.19;;;16.46;100.00
59055;BME280;44845;51.444;7.460;2023-08-01T02:28:34;97984.50;;;16.43;100.00
59055;BME280;44845;51.444;7.460;2023-08-01T02:31:00;97987.53;;;16.51;100.00
59055;BME280;44845;51.444;7.460;2023-08-01T02:33:25;97978.81;;;16.49;100.00
59055;BME280;44845;51.444;7.460;2023-08-01T02:35:50;97981.31;;;16.08;100.00
59055;BME280;44845;51.444;7.460;2023-08-01T02:38:16;97987.81;;;16.17;100.00
59055;BME280;44845;51.444;7.460;2023-08-01T02:40:41;97989.25;;;16.23;100.00
59055;BME280;44845;51.444;7.460;2023-08-01T02:43:06;97988.94;;;16.28;100.00
59055;BME280;44845;51.444;7.460;2023-08-01T02:45:32;97982.91;;;16.26;100.00
59055;BME280;44845;51.444;7.460;2023-08-01T02:47:57;97992.63;;;16.25;100.00
59055;BME280;44845;51.444;7.460;2023-08-01T02:50:22;97989.41;;;16.20;100.00
59055;BME280;44845;51.444;7.460;2023-08-01T02:52:48;97991.25;;;16.19;99.66
59055;BME280;44845;51.444;7.460;2023-08-01T02:55:13;97986.97;;;16.17;99.25
59055;BME280;44845;51.444;7.460;2023-08-01T02:57:39;97989.81;;;16.14;98.65
59055;BME280;44845;51.444;7.460;2023-08-01T03:00:04;97990.44;;;16.17;98.79
59055;BME280;44845;51.444;7.460;2023-08-01T03:02:31;97995.66;;;16.19;98.91
59055;BME280;44845;51.444;7.460;2023-08-01T03:04:56;97998.88;;;16.09;99.32
59055;BME280;44845;51.444;7.460;2023-08-01T03:07:21;97993.59;;;16.09;98.61
59055;BME280;44845;51.444;7.460;2023-08-01T03:09:47;97990.94;;;16.09;99.10
59055;BME280;44845;51.444;7.460;2023-08-01T03:12:12;97987.75;;;16.03;99.60
59055;BME280;44845;51.444;7.460;2023-08-01T03:14:37;97986.59;;;16.08;99.38
59055;BME280;44845;51.444;7.460;2023-08-01T03:17:03;97990.09;;;16.09;99.67
59055;BME280;44845;51.444;7.460;2023-08-01T03:19:28;97986.59;;;16.08;99.27
59055;BME280;44845;51.444;7.460;2023-08-01T03:21:54;97979.78;;;16.04;99.41
59055;BME280;44845;51.444;7.460;2023-08-01T03:24:20;97982.59;;;16.01;99.73
59055;BME280;44845;51.444;7.460;2023-08-01T03:26:45;97990.69;;;15.98;100.00
59055;BME280;44845;51.444;7.460;2023-08-01T03:29:10;97990.94;;;16.09;99.94
59055;BME280;44845;51.444;7.460;2023-08-01T03:31:36;97994.78;;;16.04;99.80
59055;BME280;44845;51.444;7.460;2023-08-01T03:34:01;97989.41;;;16.05;99.79
59055;BME280;44845;51.444;7.460;2023-08-01T03:36:26;97999.38;;;16.00;100.00
59055;BME280;44845;51.444;7.460;2023-08-01T03:38:52;98002.97;;;15.99;100.00
59055;BME280;44845;51.444;7.460;2023-08-01T03:41:17;97999.19;;;16.03;100.00
59055;BME280;44845;51.444;7.460;2023-08-01T03:43:42;97992.41;;;15.99;100.00
59055;BME280;44845;51.444;7.460;2023-08-01T03:46:09;97999.38;;;16.00;100.00
59055;BME280;44845;51.444;7.460;2023-08-01T03:48:34;97999.59;;;15.97;100.00
59055;BME280;44845;51.444;7.460;2023-08-01T03:51:00;98006.56;;;15.98;100.00
59055;BME280;44845;51.444;7.460;2023-08-01T03:53:25;97999.38;;;16.00;100.00
59055;BME280;44845;51.444;7.460;2023-08-01T03:55:51;98011.53;;;16.04;100.00
59055;BME280;44845;51.444;7.460;2023-08-01T03:58:16;98004.50;;;16.03;100.00
59055;BME280;44845;51.444;7.460;2023-08-01T04:00:42;98009.63;;;16.06;100.00
59055;BME280;44845;51.444;7.460;2023-08-01T04:03:07;98008.09;;;16.02;99.98
59055;BME280;44845;51.444;7.460;2023-08-01T04:05:32;98012.38;;;16.05;99.82
59055;BME280;44845;51.444;7.460;2023-08-01T04:07:59;98016.19;;;15.99;100.00
59055;BME280;44845;51.444;7.460;2023-08-01T04:10:24;98017.06;;;15.99;100.00
59055;BME280;44845;51.444;7.460;2023-08-01T04:12:49;98018.84;;;15.99;100.00
59055;BME280;44845;51.444;7.460;2023-08-01T04:15:15;98022.25;;;16.01;100.00
59055;BME280;44845;51.444;7.460;2023-08-01T04:17:40;98033.00;;;15.98;99.94
59055;BME280;44845;51.444;7.460;2023-08-01T04:20:06;98033.38;;;15.92;99.58
59055;BME280;44845;51.444;7.460;2023-08-01T04:22:32;98028.66;;;15.97;99.89
59055;BME280;44845;51.444;7.460;2023-08-01T04:24:57;98029.59;;;15.96;100.00
59055;BME280;44845;51.444;7.460;2023-08-01T04:27:22;98042.94;;;15.78;100.00
59055;BME280;44845;51.444;7.460;2023-08-01T04:29:48;98047.72;;;15.87;99.46
59055;BME280;44845;51.444;7.460;2023-08-01T04:32:14;98029.75;;;15.93;99.02
59055;BME280;44845;51.444;7.460;2023-08-01T04:34:41;98051.47;;;15.83;99.43
59055;BME280;44845;51.444;7.460;2023-08-01T04:37:06;98046.00;;;15.86;98.66
59055;BME280;44845;51.444;7.460;2023-08-01T04:39:31;98052.78;;;15.91;99.17
59055;BME280;44845;51.444;7.460;2023-08-01T04:41:57;98049.78;;;15.82;98.68
59055;BME280;44845;51.444;7.460;2023-08-01T04:44:22;98044.22;;;15.87;99.04
59055;BME280;44845;51.444;7.460;2023-08-01T04:46:48;98052.63;;;15.94;98.94
59055;BME280;44845;51.444;7.460;2023-08-01T04:49:14;98049.56;;;15.85;98.75
59055;BME280;44845;51.444;7.460;2023-08-01T04:51:39;98046.16;;;15.83;98.43
59055;BME280;44845;51.444;7.460;2023-08-01T04:54:04;98042.22;;;15.91;98.33
59055;BME280;44845;51.444;7.460;2023-08-01T04:56:30;98051.78;;;15.93;97.95
59055;BME280;44845;51.444;7.460;2023-08-01T04:58:55;98047.34;;;15.94;97.95
59055;BME280;44845;51.444;7.460;2023-08-01T05:01:20;98041.41;;;15.90;97.92
59055;BME280;44845;51.444;7.460;2023-08-01T05:03:46;98042.16;;;15.92;98.00
59055;BME280;44845;51.444;7.460;2023-08-01T05:06:11;98050.91;;;15.93;97.65
59055;BME280;44845;51.444;7.460;2023-08-01T05:08:37;98058.84;;;15.93;97.87
59055;BME280;44845;51.444;7.460;2023-08-01T05:11:02;98051.28;;;15.86;97.06
59055;BME280;44845;51.444;7.460;2023-08-01T05:13:27;98055.81;;;15.84;98.12
59055;BME280;44845;51.444;7.460;2023-08-01T05:15:53;98053.28;;;15.83;98.18
59055;BME280;44845;51.444;7.460;2023-08-01T05:18:18;98057.44;;;15.87;97.97
59055;BME280;44845;51.444;7.460;2023-08-01T05:20:44;98066.28;;;15.86;98.60
59055;BME280;44845;51.444;7.460;2023-08-01T05:23:09;98068.16;;;15.84;97.84
59055;BME280;44845;51.444;7.460;2023-08-01T05:25:35;98075.25;;;15.83;97.90
59055;BME280;44845;51.444;7.460;2023-08-01T05:28:00;98072.13;;;15.76;97.38
59055;BME280;44845;51.444;7.460;2023-08-01T05:30:25;98072.13;;;15.76;97.85
59055;BME280;44845;51.444;7.460;2023-08-01T05:32:51;98078.09;;;15.80;98.04
59055;BME280;44845;51.444;7.460;2023-08-01T05:35:17;98078.09;;;15.80;97.72
59055;BME280;44845;51.444;7.460;2023-08-01T05:37:42;98085.91;;;15.82;98.12
59055;BME280;44845;51.444;7.460;2023-08-01T05:40:08;98073.81;;;15.78;97.88
59055;BME280;44845;51.444;7.460;2023-08-01T05:42:34;98081.50;;;15.82;98.32
59055;BME280;44845;51.444;7.460;2023-08-01T05:44:59;98084.03;;;15.84;97.72
59055;BME280;44845;51.444;7.460;2023-08-01T05:47:24;98093.09;;;15.80;97.99
59055;BME280;44845;51.444;7.460;2023-08-01T05:49:50;98095.78;;;15.78;98.61
59055;BME280;44845;51.444;7.460;2023-08-01T05:52:15;98098.38;;;15.80;98.39
59055;BME280;44845;51.444;7.460;2023-08-01T05:54:41;98097.34;;;15.82;98.12
59055;BME280;44845;51.444;7.460;2023-08-01T05:57:07;98097.34;;;15.82;98.05
59055;BME280;44845;51.444;7.460;2023-08-01T05:59:32;98098.63;;;15.75;98.51
59055;BME280;44845;51.444;7.460;2023-08-01T06:01:58;98100.84;;;15.83;98.33
59055;BME280;44845;51.444;7.460;2023-08-01T06:04:23;98096.81;;;15.75;98.30
59055;BME280;44845;51.444;7.460;2023-08-01T06:06:49;98099.28;;;15.79;98.19
59055;BME280;44845;51.444;7.460;2023-08-01T06:09:14;98096.38;;;15.83;98.28
59055;BME280;44845;51.444;7.460;2023-08-01T06:11:39;98092.66;;;15.87;98.76
59055;BME280;44845;51.444;7.460;2023-08-01T06:14:05;98101.50;;;15.86;98.18
59055;BME280;44845;51.444;7.460;2023-08-01T06:16:30;98100.38;;;15.91;98.14
59055;BME280;44845;51.444;7.460;2023-08-01T06:18:55;98100.56;;;15.87;97.68
59055;BME280;44845;51.444;7.460;2023-08-01T06:21:21;98101.06;;;15.94;98.24
59055;BME280;44845;51.444;7.460;2023-08-01T06:23:47;98100.38;;;15.91;98.43
59055;BME280;44845;51.444;7.460;2023-08-01T06:26:12;98098.59;;;15.91;98.53
59055;BME280;44845;51.444;7.460;2023-08-01T06:28:40;98100.03;;;15.97;98.39
59055;BME280;44845;51.444;7.460;2023-08-01T06:31:05;98102.09;;;15.92;98.45
59055;BME280;44845;51.444;7.460;2023-08-01T06:33:31;98105.97;;;16.01;97.79
59055;BME280;44845;51.444;7.460;2023-08-01T06:35:56;98109.66;;;15.98;98.29
59055;BME280;44845;51.444;7.460;2023-08-01T06:38:22;98101.44;;;16.03;97.90
59055;BME280;44845;51.444;7.460;2023-08-01T06:40:47;98105.06;;;16.02;98.03
59055;BME280;44845;51.444;7.460;2023-08-01T06:43:12;98110.59;;;15.97;98.09
59055;BME280;44845;51.444;7.460;2023-08-01T06:45:38;98111.97;;;16.04;97.21
59055;BME280;44845;51.444;7.460;2023-08-01T06:48:03;98115.69;;;16.00;97.36
59055;BME280;44845;51.444;7.460;2023-08-01T06:50:29;98113.25;;;15.97;97.73
59055;BME280;44845;51.444;7.460;2023-08-01T06:52:54;98107.88;;;15.98;97.89
59055;BME280;44845;51.444;7.460;2023-08-01T06:55:19;98110.09;;;16.06;97.09
59055;BME280;44845;51.444;7.460;2023-08-01T06:57:45;98117.84;;;16.09;96.96
59055;BME280;44845;51.444;7.460;2023-08-01T07:00:10;98112.19;;;16.16;97.49
59055;BME280;44845;51.444;7.460;2023-08-01T07:02:36;98117.69;;;16.27;97.17
59055;BME280;44845;51.444;7.460;2023-08-01T07:05:01;98114.66;;;16.19;97.93
59055;BME280;44845;51.444;7.460;2023-08-01T07:07:27;98110.78;;;16.25;97.79
59055;BME280;44845;51.444;7.460;2023-08-01T07:09:52;98115.63;;;16.32;97.99
59055;BME280;44845;51.444;7.460;2023-08-01T07:12:18;98119.22;;;16.31;96.56
59055;BME280;44845;51.444;7.460;2023-08-01T07:14:43;98117.69;;;16.27;97.01
59055;BME280;44845;51.444;7.460;2023-08-01T07:17:08;98130.34;;;16.22;97.36
59055;BME280;44845;51.444;7.460;2023-08-01T07:19:34;98126.97;;;16.35;97.09
59055;BME280;44845;51.444;7.460;2023-08-01T07:21:59;98133.03;;;16.37;97.26
59055;BME280;44845;51.444;7.460;2023-08-01T07:24:25;98132.84;;;16.40;96.84
59055;BME280;44845;51.444;7.460;2023-08-01T07:26:50;98127.47;;;16.41;97.34
59055;BME280;44845;51.444;7.460;2023-08-01T07:29:15;98122.94;;;16.43;96.73
59055;BME280;44845;51.444;7.460;2023-08-01T07:31:41;98132.00;;;16.39;95.60
59055;BME280;44845;51.444;7.460;2023-08-01T07:34:07;98132.66;;;16.43;96.73
59055;BME280;44845;51.444;7.460;2023-08-01T07:36:32;98135.31;;;16.43;97.24
59055;BME280;44845;51.444;7.460;2023-08-01T07:38:58;98127.84;;;16.50;97.29
59055;BME280;44845;51.444;7.460;2023-08-01T07:41:23;98140.75;;;16.40;96.83
59055;BME280;44845;51.444;7.460;2023-08-01T07:43:48;98139.09;;;16.53;97.00
59055;BME280;44845;51.444;7.460;2023-08-01T07:46:14;98137.69;;;16.62;96.87
59055;BME280;44845;51.444;7.460;2023-08-01T07:48:39;98136.66;;;16.65;96.36
59055;BME280;44845;51.444;7.460;2023-08-01T07:51:05;98136.81;;;16.62;96.69
59055;BME280;44845;51.444;7.460;2023-08-01T07:53:33;98142.03;;;16.63;96.44
59055;BME280;44845;51.444;7.460;2023-08-01T07:55:58;98140.44;;;16.61;96.10
59055;BME280;44845;51.444;7.460;2023-08-01T07:58:24;98141.47;;;16.58;95.77
59055;BME280;44845;51.444;7.460;2023-08-01T08:00:49;98146.75;;;16.58;95.86
59055;BME280;44845;51.444;7.460;2023-08-01T08:03:14;98150.16;;;16.60;96.38
59055;BME280;44845;51.444;7.460;2023-08-01T08:05:40;98151.31;;;16.71;96.65
59055;BME280;44845;51.444;7.460;2023-08-01T08:08:05;98149.53;;;16.71;96.59
59055;BME280;44845;51.444;7.460;2023-08-01T08:10:31;98150.19;;;16.89;96.72
59055;BME280;44845;51.444;7.460;2023-08-01T08:12:56;98148.75;;;16.98;95.82
59055;BME280;44845;51.444;7.460;2023-08-01T08:15:22;98158.81;;;16.93;95.26
59055;BME280;44845;51.444;7.460;2023-08-01T08:17:49;98150.84;;;16.93;95.53
59055;BME280;44845;51.444;7.460;2023-08-01T08:20:14;98150.84;;;16.93;95.20
59055;BME280;44845;51.444;7.460;2023-08-01T08:22:40;98164.09;;;16.93;94.91
59055;BME280;44845;51.444;7.460;2023-08-01T08:25:05;98148.75;;;16.98;95.11
59055;BME280;44845;51.444;7.460;2023-08-01T08:27:30;98154.16;;;16.97;95.46
59055;BME280;44845;51.444;7.460;2023-08-01T08:29:56;98162.56;;;17.04;95.01
59055;BME280;44845;51.444;7.460;2023-08-01T08:32:21;98163.22;;;17.07;95.43
59055;BME280;44845;51.444;7.460;2023-08-01T08:34:46;98165.41;;;17.00;94.86
59055;BME280;44845;51.444;7.460;2023-08-01T08:37:12;98168.72;;;17.04;94.62
59055;BME280;44845;51.444;7.460;2023-08-01T08:39:37;98167.06;;;17.18;94.49
59055;BME280;44845;51.444;7.460;2023-08-01T08:42:03;98170.34;;;17.21;95.04
59055;BME280;44845;51.444;7.460;2023-08-01T08:44:30;98170.53;;;17.18;94.96
59055;BME280;44845;51.444;7.460;2023-08-01T08:47:03;98165.63;;;17.27;94.35
59055;BME280;44845;51.444;7.460;2023-08-01T08:49:31;98169.47;;;17.36;94.11
59055;BME280;44845;51.444;7.460;2023-08-01T08:51:57;98164.28;;;17.34;94.40
59055;BME280;44845;51.444;7.460;2023-08-01T08:54:24;98161.91;;;17.29;92.94
59055;BME280;44845;51.444;7.460;2023-08-01T08:56:50;98172.06;;;17.22;92.58
59055;BME280;44845;51.444;7.460;2023-08-01T08:59:16;98170.44;;;17.35;92.50
59055;BME280;44845;51.444;7.460;2023-08-01T09:01:41;98165.78;;;17.38;93.89
59055;BME280;44845;51.444;7.460;2023-08-01T09:04:06;98171.94;;;17.39;93.37
59055;BME280;44845;51.444;7.460;2023-08-01T09:06:34;98164.09;;;17.37;93.47
59055;BME280;44845;51.444;7.460;2023-08-01T09:09:09;98162.94;;;17.41;93.28
59055;BME280;44845;51.444;7.460;2023-08-01T09:11:54;98162.19;;;17.39;94.11
59055;BME280;44845;51.444;7.460;2023-08-01T09:14:21;98158.78;;;17.37;94.70
59055;BME280;44845;51.444;7.460;2023-08-01T09:16:47;98171.81;;;17.40;93.94
59055;BME280;44845;51.444;7.460;2023-08-01T09:19:17;98178.84;;;17.41;93.69
59055;BME280;44845;51.444;7.460;2023-08-01T09:21:42;98178.28;;;17.36;92.43
59055;BME280;44845;51.444;7.460;2023-08-01T09:24:13;98178.97;;;17.25;91.87
59055;BME280;44845;51.444;7.460;2023-08-01T09:26:39;98181.63;;;17.25;91.92
59055;BME280;44845;51.444;7.460;2023-08-01T09:29:04;98181.41;;;17.28;92.82
59055;BME280;44845;51.444;7.460;2023-08-01T09:31:34;98176.09;;;17.28;93.28
59055;BME280;44845;51.444;7.460;2023-08-01T09:34:01;98176.09;;;17.28;93.66
59055;BME280;44845;51.444;7.460;2023-08-01T09:36:26;98176.09;;;17.28;94.10
59055;BME280;44845;51.444;7.460;2023-08-01T09:38:58;98184.88;;;17.43;95.47
59055;BME280;44845;51.444;7.460;2023-08-01T09:41:24;98175.81;;;17.33;95.63
59055;BME280;44845;51.444;7.460;2023-08-01T09:43:49;98184.63;;;17.33;95.30
59055;BME280;44845;51.444;7.460;2023-08-01T09:46:15;98181.88;;;17.35;95.33
59055;BME280;44845;51.444;7.460;2023-08-01T09:48:40;98181.47;;;17.41;94.32
59055;BME280;44845;51.444;7.460;2023-08-01T09:51:17;98174.38;;;17.56;94.71
59055;BME280;44845;51.444;7.460;2023-08-01T09:53:51;98164.78;;;17.69;95.33
59055;BME280;44845;51.444;7.460;2023-08-01T09:56:24;98169.03;;;17.71;93.88
59055;BME280;44845;51.444;7.460;2023-08-01T09:58:52;98170.06;;;17.69;91.90
59055;BME280;44845;51.444;7.460;2023-08-01T10:01:19;98175.53;;;17.80;91.53
59055;BME280;44845;51.444;7.460;2023-08-01T10:03:46;98181.00;;;17.92;91.99
59055;BME280;44845;51.444;7.460;2023-08-01T10:06:23;98176.75;;;17.89;91.15
59055;BME280;44845;51.444;7.460;2023-08-01T10:08:51;98173.78;;;17.94;91.37
59055;BME280;44845;51.444;7.460;2023-08-01T10:11:19;98167.13;;;18.01;91.47
59055;BME280;44845;51.444;7.460;2023-08-01T10:13:44;98165.28;;;17.88;89.42
59055;BME280;44845;51.444;7.460;2023-08-01T10:16:11;98161.06;;;17.99;88.27
59055;BME280;44845;51.444;7.460;2023-08-01T10:18:37;98154.00;;;18.12;88.78
59055;BME280;44845;51.444;7.460;2023-08-01T10:21:16;98161.59;;;18.04;89.00
59055;BME280;44845;51.444;7.460;2023-08-01T10:23:43;98162.16;;;18.09;88.05
59055;BME280;44845;51.444;7.460;2023-08-01T10:26:11;98162.69;;;18.15;87.43
59055;BME280;44845;51.444;7.460;2023-08-01T10:28:38;98168.38;;;18.23;88.29
59055;BME280;44845;51.444;7.460;2023-08-01T10:31:14;98169.72;;;18.16;87.46
59055;BME280;44845;51.444;7.460;2023-08-01T10:33:44;98184.53;;;18.05;86.95
59055;BME280;44845;51.444;7.460;2023-08-01T10:38:54;98189.78;;;17.64;89.20
59055;BME280;44845;51.444;7.460;2023-08-01T10:41:20;98188.66;;;17.54;89.37
59055;BME280;44845;51.444;7.460;2023-08-01T10:43:46;98179.78;;;17.40;91.15
59055;BME280;44845;51.444;7.460;2023-08-01T10:46:11;98183.38;;;17.39;91.14
59055;BME280;44845;51.444;7.460;2023-08-01T10:48:51;98187.19;;;17.35;92.07
59055;BME280;44845;51.444;7.460;2023-08-01T10:51:16;98189.63;;;17.38;92.26
59055;BME280;44845;51.444;7.460;2023-08-01T10:53:41;98186.78;;;17.41;92.94
59055;BME280;44845;51.444;7.460;2023-08-01T10:56:07;98180.44;;;17.44;92.06
59055;BME280;44845;51.444;7.460;2023-08-01T10:58:34;98182.41;;;17.55;93.96
59055;BME280;44845;51.444;7.460;2023-08-01T11:01:01;98190.91;;;17.60;94.87
59055;BME280;44845;51.444;7.460;2023-08-01T11:03:44;98188.63;;;17.69;94.75
59055;BME280;44845;51.444;7.460;2023-08-01T11:06:09;98195.03;;;17.79;95.57
59055;BME280;44845;51.444;7.460;2023-08-01T11:08:36;98195.81;;;17.94;95.73
59055;BME280;44845;51.444;7.460;2023-08-01T11:11:04;98184.53;;;18.05;97.30
59055;BME280;44845;51.444;7.460;2023-08-01T11:13:30;98193.03;;;18.10;98.11
59055;BME280;44845;51.444;7.460;2023-08-01T11:15:55;98191.94;;;18.28;96.94
59055;BME280;44845;51.444;7.460;2023-08-01T11:18:22;98193.56;;;18.30;94.54
59055;BME280;44845;51.444;7.460;2023-08-01T11:20:47;98193.66;;;18.42;95.36
59055;BME280;44845;51.444;7.460;2023-08-01T11:23:12;98189.94;;;18.31;94.34
59055;BME280;44845;51.444;7.460;2023-08-01T11:25:40;98203.81;;;18.22;92.47
59055;BME280;44845;51.444;7.460;2023-08-01T11:28:10;98235.47;;;18.10;91.58
59055;BME280;44845;51.444;7.460;2023-08-01T11:30:36;98239.84;;;17.69;91.25
59055;BME280;44845;51.444;7.460;2023-08-01T11:33:02;98238.44;;;17.63;90.71
59055;BME280;44845;51.444;7.460;2023-08-01T11:35:38;98232.22;;;17.50;90.11
59055;BME280;44845;51.444;7.460;2023-08-01T11:38:03;98232.97;;;17.52;90.59
59055;BME280;44845;51.444;7.460;2023-08-01T11:40:29;98250.53;;;17.53;90.65
59055;BME280;44845;51.444;7.460;2023-08-01T11:42:56;98247.81;;;17.54;92.47
59055;BME280;44845;51.444;7.460;2023-08-01T11:45:22;98254.72;;;17.57;93.96
59055;BME280;44845;51.444;7.460;2023-08-01T11:47:48;98260.22;;;17.54;92.70
59055;BME280;44845;51.444;7.460;2023-08-01T11:50:19;98253.00;;;17.56;93.51
59055;BME280;44845;51.444;7.460;2023-08-01T11:52:46;98251.59;;;17.50;93.30
59055;BME280;44845;51.444;7.460;2023-08-01T11:55:21;98250.19;;;17.44;92.76
59055;BME280;44845;51.444;7.460;2023-08-01T11:57:57;98251.69;;;17.49;93.62
59055;BME280;44845;51.444;7.460;2023-08-01T12:00:29;98253.59;;;17.47;93.58
59055;BME280;44845;51.444;7.460;2023-08-01T12:03:08;98264.00;;;17.50;93.27
59055;BME280;44845;51.444;7.460;2023-08-01T12:05:38;98264.94;;;17.49;92.96
59055;BME280;44845;51.444;7.460;2023-08-01T12:08:13;98262.69;;;17.42;93.33
59055;BME280;44845;51.444;7.460;2023-08-01T12:10:44;98268.34;;;17.36;92.88
59055;BME280;44845;51.444;7.460;2023-08-01T12:13:22;98272.72;;;17.37;91.70
59055;BME280;44845;51.444;7.460;2023-08-01T12:15:50;98279.34;;;17.30;91.66
59055;BME280;44845;51.444;7.460;2023-08-01T12:18:22;98282.75;;;17.32;91.41
59055;BME280;44845;51.444;7.460;2023-08-01T12:20:48;98286.78;;;17.38;91.58
59055;BME280;44845;51.444;7.460;2023-08-01T12:23:13;98277.72;;;17.42;91.42
59055;BME280;44845;51.444;7.460;2023-08-01T12:25:38;98277.78;;;17.55;91.42
59055;BME280;44845;51.444;7.460;2023-08-01T12:28:04;98277.44;;;17.61;93.28
59055;BME280;44845;51.444;7.460;2023-08-01T12:30:30;98278.06;;;17.65;92.67
59055;BME280;44845;51.444;7.460;2023-08-01T12:32:55;98281.78;;;17.62;92.51
59055;BME280;44845;51.444;7.460;2023-08-01T12:35:20;98288.03;;;17.61;92.85
59055;BME280;44845;51.444;7.460;2023-08-01T12:37:46;98289.53;;;17.65;92.77
59055;BME280;44845;51.444;7.460;2023-08-01T12:40:11;98285.19;;;17.64;91.92
59055;BME280;44845;51.444;7.460;2023-08-01T12:42:36;98290.41;;;17.66;92.33
59055;BME280;44845;51.444;7.460;2023-08-01T12:45:02;98288.50;;;17.68;90.74
59055;BME280;44845;51.444;7.460;2023-08-01T12:47:28;98290.22;;;17.69;91.35
59055;BME280;44845;51.444;7.460;2023-08-01T12:49:54;98300.34;;;17.77;92.25
59055;BME280;44845;51.444;7.460;2023-08-01T12:52:23;98304.31;;;17.84;92.15
59055;BME280;44845;51.444;7.460;2023-08-01T12:54:52;98308.28;;;17.77;90.85